sensor_id;sensor_type;location;lat;lon;timestamp;temperature;humidity
66102;HTU21D;52883;51.094;5.880;2023-04-30T00:02:15;8.16;118.99
66102;HTU21D;52883;51.094;5.880;2023-04-30T00:04:41;8.19;118.99
66102;HTU21D;52883;51.094;5.880;2023-04-30T00:07:07;8.09;118.99
66102;HTU21D;52883;51.094;5.880;2023-04-30T00:09:33;8.08;118.99
66102;HTU21D;52883;51.094;5.880;2023-04-30T00:11:59;8.09;118.99
66102;HTU21D;52883;51.094;5.880;2023-04-30T00:14:24;8.04;118.99
66102;HTU21D;52883;51.094;5.880;2023-04-30T00:16:50;8.04;118.99
66102;HTU21D;52883;51.094;5.880;2023-04-30T00:19:15;8.06;118.99
66102;HTU21D;52883;51.094;5.880;2023-04-30T00:21:41;8.07;118.99
66102;HTU21D;52883;51.094;5.880;2023-04-30T00:24:07;8.06;118.99
66102;HTU21D;52883;51.094;5.880;2023-04-30T00:26:32;7.97;118.99
66102;HTU21D;52883;51.094;5.880;2023-04-30T00:28:58;7.93;118.99
66102;HTU21D;52883;51.094;5.880;2023-04-30T00:31:23;7.94;118.99
66102;HTU21D;52883;51.094;5.880;2023-04-30T00:33:49;7.86;118.99
66102;HTU21D;52883;51.094;5.880;2023-04-30T00:36:16;7.79;118.99
66102;HTU21D;52883;51.094;5.880;2023-04-30T00:38:41;7.68;118.99
66102;HTU21D;52883;51.094;5.880;2023-04-30T00:41:07;7.59;118.99
66102;HTU21D;52883;51.094;5.880;2023-04-30T00:43:33;7.50;118.99
66102;HTU21D;52883;51.094;5.880;2023-04-30T00:45:58;7.44;118.99
66102;HTU21D;52883;51.094;5.880;2023-04-30T00:48:24;7.38;118.99
66102;HTU21D;52883;51.094;5.880;2023-04-30T00:50:51;7.31;118.99
66102;HTU21D;52883;51.094;5.880;2023-04-30T00:53:17;7.19;118.99
66102;HTU21D;52883;51.094;5.880;2023-04-30T00:55:44;7.05;118.99
66102;HTU21D;52883;51.094;5.880;2023-04-30T00:58:10;6.95;118.99
66102;HTU21D;52883;51.094;5.880;2023-04-30T01:00:36;6.81;118.99
66102;HTU21D;52883;51.094;5.880;2023-04-30T01:03:02;6.68;118.99
66102;HTU21D;52883;51.094;5.880;2023-04-30T01:05:28;6.68;118.99
66102;HTU21D;52883;51.094;5.880;2023-04-30T01:07:55;6.69;118.99
66102;HTU21D;52883;51.094;5.880;2023-04-30T01:10:27;6.68;118.99
66102;HTU21D;52883;51.094;5.880;2023-04-30T01:13:00;6.64;118.99
66102;HTU21D;52883;51.094;5.880;2023-04-30T01:15:42;6.59;118.99
66102;HTU21D;52883;51.094;5.880;2023-04-30T01:18:30;6.67;118.99
66102;HTU21D;52883;51.094;5.880;2023-04-30T01:21:04;6.73;118.99
66102;HTU21D;52883;51.094;5.880;2023-04-30T01:29:03;6.82;118.99
66102;HTU21D;52883;51.094;5.880;2023-04-30T01:31:29;6.80;118.99
66102;HTU21D;52883;51.094;5.880;2023-04-30T01:33:55;6.80;118.99
66102;HTU21D;52883;51.094;5.880;2023-04-30T01:44:48;6.70;118.99
66102;HTU21D;52883;51.094;5.880;2023-04-30T01:50:46;6.56;118.99
66102;HTU21D;52883;51.094;5.880;2023-04-30T01:53:20;6.51;118.99
66102;HTU21D;52883;51.094;5.880;2023-04-30T01:56:02;6.46;118.99
66102;HTU21D;52883;51.094;5.880;2023-04-30T01:58:29;6.41;118.99
66102;HTU21D;52883;51.094;5.880;2023-04-30T02:00:56;6.33;118.99
66102;HTU21D;52883;51.094;5.880;2023-04-30T02:03:21;6.21;118.99
66102;HTU21D;52883;51.094;5.880;2023-04-30T02:05:49;6.11;118.99
66102;HTU21D;52883;51.094;5.880;2023-04-30T02:08:14;6.02;118.99
66102;HTU21D;52883;51.094;5.880;2023-04-30T02:10:40;5.98;118.99
66102;HTU21D;52883;51.094;5.880;2023-04-30T02:13:06;5.93;118.99
66102;HTU21D;52883;51.094;5.880;2023-04-30T02:15:31;5.96;118.99
66102;HTU21D;52883;51.094;5.880;2023-04-30T02:17:57;5.96;118.99
66102;HTU21D;52883;51.094;5.880;2023-04-30T02:20:23;5.91;118.99
66102;HTU21D;52883;51.094;5.880;2023-04-30T02:22:48;5.74;118.99
66102;HTU21D;52883;51.094;5.880;2023-04-30T02:25:14;5.70;118.99
66102;HTU21D;52883;51.094;5.880;2023-04-30T02:27:40;5.71;118.99
66102;HTU21D;52883;51.094;5.880;2023-04-30T02:30:06;5.65;118.99
66102;HTU21D;52883;51.094;5.880;2023-04-30T02:32:32;5.52;118.99
66102;HTU21D;52883;51.094;5.880;2023-04-30T02:34:57;5.36;118.99
66102;HTU21D;52883;51.094;5.880;2023-04-30T02:37:23;5.18;118.99
66102;HTU21D;52883;51.094;5.880;2023-04-30T02:39:49;5.15;118.99
66102;HTU21D;52883;51.094;5.880;2023-04-30T02:42:15;5.19;118.99
66102;HTU21D;52883;51.094;5.880;2023-04-30T02:44:40;5.39;118.99
66102;HTU21D;52883;51.094;5.880;2023-04-30T02:47:06;5.45;118.99
66102;HTU21D;52883;51.094;5.880;2023-04-30T02:49:32;5.34;118.99
66102;HTU21D;52883;51.094;5.880;2023-04-30T02:51:58;5.18;118.99
66102;HTU21D;52883;51.094;5.880;2023-04-30T02:54:23;5.17;118.99
66102;HTU21D;52883;51.094;5.880;2023-04-30T02:56:49;5.11;118.99
66102;HTU21D;52883;51.094;5.880;2023-04-30T02:59:15;4.98;118.99
66102;HTU21D;52883;51.094;5.880;2023-04-30T03:01:40;4.82;118.99
66102;HTU21D;52883;51.094;5.880;2023-04-30T03:04:06;4.68;118.99
66102;HTU21D;52883;51.094;5.880;2023-04-30T03:06:32;4.63;118.99
66102;HTU21D;52883;51.094;5.880;2023-04-30T03:08:58;4.71;118.99
66102;HTU21D;52883;51.094;5.880;2023-04-30T03:11:25;4.71;118.99
66102;HTU21D;52883;51.094;5.880;2023-04-30T03:13:50;4.62;118.99
66102;HTU21D;52883;51.094;5.880;2023-04-30T03:16:18;4.71;118.99
66102;HTU21D;52883;51.094;5.880;2023-04-30T03:18:44;4.82;118.99
66102;HTU21D;52883;51.094;5.880;2023-04-30T03:21:10;4.78;118.99
66102;HTU21D;52883;51.094;5.880;2023-04-30T03:23:36;4.71;118.99
66102;HTU21D;52883;51.094;5.880;2023-04-30T03:26:01;4.74;118.99
66102;HTU21D;52883;51.094;5.880;2023-04-30T03:28:27;4.74;118.99
66102;HTU21D;52883;51.094;5.880;2023-04-30T03:30:52;4.74;118.99
66102;HTU21D;52883;51.094;5.880;2023-04-30T03:33:18;4.74;118.99
66102;HTU21D;52883;51.094;5.880;2023-04-30T03:35:44;4.69;118.99
66102;HTU21D;52883;51.094;5.880;2023-04-30T03:38:10;4.66;118.99
66102;HTU21D;52883;51.094;5.880;2023-04-30T03:40:36;4.63;118.99
66102;HTU21D;52883;51.094;5.880;2023-04-30T03:43:01;4.54;118.99
66102;HTU21D;52883;51.094;5.880;2023-04-30T03:45:27;4.45;118.99
66102;HTU21D;52883;51.094;5.880;2023-04-30T03:47:52;4.44;118.99
66102;HTU21D;52883;51.094;5.880;2023-04-30T03:50:18;4.43;118.99
66102;HTU21D;52883;51.094;5.880;2023-04-30T03:52:45;4.47;118.99
66102;HTU21D;52883;51.094;5.880;2023-04-30T03:55:12;4.39;118.99
66102;HTU21D;52883;51.094;5.880;2023-04-30T03:57:38;4.21;118.99
66102;HTU21D;52883;51.094;5.880;2023-04-30T04:00:09;4.06;118.99
66102;HTU21D;52883;51.094;5.880;2023-04-30T04:02:45;3.97;118.99
66102;HTU21D;52883;51.094;5.880;2023-04-30T04:05:11;3.78;118.99
66102;HTU21D;52883;51.094;5.880;2023-04-30T04:07:37;3.64;118.99
66102;HTU21D;52883;51.094;5.880;2023-04-30T04:10:02;3.64;118.99
66102;HTU21D;52883;51.094;5.880;2023-04-30T04:12:30;3.59;118.99
66102;HTU21D;52883;51.094;5.880;2023-04-30T04:14:55;3.53;118.99
66102;HTU21D;52883;51.094;5.880;2023-04-30T04:17:21;3.48;118.99
66102;HTU21D;52883;51.094;5.880;2023-04-30T04:19:47;3.47;118.99
66102;HTU21D;52883;51.094;5.880;2023-04-30T04:22:14;3.52;118.99
66102;HTU21D;52883;51.094;5.880;2023-04-30T04:24:40;3.67;118.99
66102;HTU21D;52883;51.094;5.880;2023-04-30T04:27:06;3.70;118.99
66102;HTU21D;52883;51.094;5.880;2023-04-30T04:29:32;3.71;118.99
66102;HTU21D;52883;51.094;5.880;2023-04-30T04:31:57;3.68;118.99
66102;HTU21D;52883;51.094;5.880;2023-04-30T04:34:25;3.84;118.99
66102;HTU21D;52883;51.094;5.880;2023-04-30T04:36:51;4.13;118.99
66102;HTU21D;52883;51.094;5.880;2023-04-30T04:39:17;4.42;118.99
66102;HTU21D;52883;51.094;5.880;2023-04-30T04:41:44;4.84;118.99
66102;HTU21D;52883;51.094;5.880;2023-04-30T04:44:09;5.13;118.99
66102;HTU21D;52883;51.094;5.880;2023-04-30T04:46:35;5.37;118.99
66102;HTU21D;52883;51.094;5.880;2023-04-30T04:49:03;5.60;118.99
66102;HTU21D;52883;51.094;5.880;2023-04-30T04:51:29;5.65;118.99
66102;HTU21D;52883;51.094;5.880;2023-04-30T04:53:54;5.55;118.99
66102;HTU21D;52883;51.094;5.880;2023-04-30T04:56:20;5.46;118.99
66102;HTU21D;52883;51.094;5.880;2023-04-30T04:58:46;5.38;118.99
66102;HTU21D;52883;51.094;5.880;2023-04-30T05:01:12;5.61;118.99
66102;HTU21D;52883;51.094;5.880;2023-04-30T05:03:37;6.49;118.99
66102;HTU21D;52883;51.094;5.880;2023-04-30T05:06:04;7.55;118.99
66102;HTU21D;52883;51.094;5.880;2023-04-30T05:08:30;8.21;118.99
66102;HTU21D;52883;51.094;5.880;2023-04-30T05:10:56;8.72;118.99
66102;HTU21D;52883;51.094;5.880;2023-04-30T05:13:22;9.52;118.99
66102;HTU21D;52883;51.094;5.880;2023-04-30T05:15:51;10.36;118.99
66102;HTU21D;52883;51.094;5.880;2023-04-30T05:18:17;11.00;118.99
66102;HTU21D;52883;51.094;5.880;2023-04-30T05:20:43;11.33;118.99
66102;HTU21D;52883;51.094;5.880;2023-04-30T05:23:08;11.48;118.99
66102;HTU21D;52883;51.094;5.880;2023-04-30T05:25:34;11.68;118.99
66102;HTU21D;52883;51.094;5.880;2023-04-30T05:28:00;11.73;118.99
66102;HTU21D;52883;51.094;5.880;2023-04-30T05:30:26;11.90;118.99
66102;HTU21D;52883;51.094;5.880;2023-04-30T05:32:52;12.08;118.99
66102;HTU21D;52883;51.094;5.880;2023-04-30T05:35:18;12.50;118.99
66102;HTU21D;52883;51.094;5.880;2023-04-30T05:37:44;12.81;118.99
66102;HTU21D;52883;51.094;5.880;2023-04-30T05:40:10;13.19;118.99
66102;HTU21D;52883;51.094;5.880;2023-04-30T05:42:37;13.75;118.99
66102;HTU21D;52883;51.094;5.880;2023-04-30T05:45:06;14.19;118.99
66102;HTU21D;52883;51.094;5.880;2023-04-30T05:47:31;14.11;118.99
66102;HTU21D;52883;51.094;5.880;2023-04-30T05:49:57;14.60;118.99
66102;HTU21D;52883;51.094;5.880;2023-04-30T05:52:23;15.03;118.99
66102;HTU21D;52883;51.094;5.880;2023-04-30T05:54:48;15.22;118.99
66102;HTU21D;52883;51.094;5.880;2023-04-30T05:57:14;15.19;118.99
66102;HTU21D;52883;51.094;5.880;2023-04-30T05:59:39;15.55;118.99
66102;HTU21D;52883;51.094;5.880;2023-04-30T06:02:05;16.19;118.99
66102;HTU21D;52883;51.094;5.880;2023-04-30T06:04:31;16.49;118.99
66102;HTU21D;52883;51.094;5.880;2023-04-30T06:06:57;16.77;118.99
66102;HTU21D;52883;51.094;5.880;2023-04-30T06:09:22;17.17;118.99
66102;HTU21D;52883;51.094;5.880;2023-04-30T06:11:48;17.35;118.18
66102;HTU21D;52883;51.094;5.880;2023-04-30T06:14:17;17.38;118.99
66102;HTU21D;52883;51.094;5.880;2023-04-30T06:16:43;17.58;114.44
66102;HTU21D;52883;51.094;5.880;2023-04-30T06:19:10;17.83;118.99
66102;HTU21D;52883;51.094;5.880;2023-04-30T06:21:35;18.48;118.99
66102;HTU21D;52883;51.094;5.880;2023-04-30T06:24:02;18.66;118.99
66102;HTU21D;52883;51.094;5.880;2023-04-30T06:26:27;19.03;118.99
66102;HTU21D;52883;51.094;5.880;2023-04-30T06:28:53;19.28;118.44
66102;HTU21D;52883;51.094;5.880;2023-04-30T06:31:19;19.42;117.84
66102;HTU21D;52883;51.094;5.880;2023-04-30T06:33:44;19.39;118.99
66102;HTU21D;52883;51.094;5.880;2023-04-30T06:36:10;19.43;118.99
66102;HTU21D;52883;51.094;5.880;2023-04-30T06:38:35;19.33;110.13
66102;HTU21D;52883;51.094;5.880;2023-04-30T06:41:01;19.36;118.81
66102;HTU21D;52883;51.094;5.880;2023-04-30T06:43:26;19.86;104.01
66102;HTU21D;52883;51.094;5.880;2023-04-30T06:45:52;20.07;113.31
66102;HTU21D;52883;51.094;5.880;2023-04-30T06:48:18;20.28;96.52
66102;HTU21D;52883;51.094;5.880;2023-04-30T06:50:43;20.41;103.53
66102;HTU21D;52883;51.094;5.880;2023-04-30T06:53:13;20.50;80.18
66102;HTU21D;52883;51.094;5.880;2023-04-30T06:55:40;20.50;98.51
66102;HTU21D;52883;51.094;5.880;2023-04-30T06:58:05;20.54;104.81
66102;HTU21D;52883;51.094;5.880;2023-04-30T07:00:33;20.93;100.16
66102;HTU21D;52883;51.094;5.880;2023-04-30T07:02:58;20.93;92.43
66102;HTU21D;52883;51.094;5.880;2023-04-30T07:05:29;20.61;88.11
66102;HTU21D;52883;51.094;5.880;2023-04-30T07:07:55;19.38;100.65
66102;HTU21D;52883;51.094;5.880;2023-04-30T07:10:21;17.94;118.56
66102;HTU21D;52883;51.094;5.880;2023-04-30T07:12:47;17.09;118.99
66102;HTU21D;52883;51.094;5.880;2023-04-30T07:15:13;16.90;118.99
66102;HTU21D;52883;51.094;5.880;2023-04-30T07:17:39;16.85;118.99
66102;HTU21D;52883;51.094;5.880;2023-04-30T07:20:07;17.34;113.39
66102;HTU21D;52883;51.094;5.880;2023-04-30T07:22:33;17.29;118.99
66102;HTU21D;52883;51.094;5.880;2023-04-30T07:24:59;17.46;118.99
66102;HTU21D;52883;51.094;5.880;2023-04-30T07:27:26;18.65;118.99
66102;HTU21D;52883;51.094;5.880;2023-04-30T07:29:53;19.30;106.72
66102;HTU21D;52883;51.094;5.880;2023-04-30T07:32:19;18.94;105.05
66102;HTU21D;52883;51.094;5.880;2023-04-30T07:34:45;18.29;106.97
66102;HTU21D;52883;51.094;5.880;2023-04-30T07:37:11;17.62;118.99
66102;HTU21D;52883;51.094;5.880;2023-04-30T07:39:36;17.41;118.99
66102;HTU21D;52883;51.094;5.880;2023-04-30T07:42:03;18.28;118.99
66102;HTU21D;52883;51.094;5.880;2023-04-30T07:44:29;19.18;107.45
66102;HTU21D;52883;51.094;5.880;2023-04-30T07:46:55;19.10;104.95
66102;HTU21D;52883;51.094;5.880;2023-04-30T07:49:21;18.68;106.37
66102;HTU21D;52883;51.094;5.880;2023-04-30T07:51:46;18.07;111.10
66102;HTU21D;52883;51.094;5.880;2023-04-30T07:54:13;17.51;116.21
66102;HTU21D;52883;51.094;5.880;2023-04-30T07:56:38;17.35;118.99
66102;HTU21D;52883;51.094;5.880;2023-04-30T07:59:04;17.35;118.99
66102;HTU21D;52883;51.094;5.880;2023-04-30T08:01:31;17.97;114.27
66102;HTU21D;52883;51.094;5.880;2023-04-30T08:03:56;18.39;109.33
66102;HTU21D;52883;51.094;5.880;2023-04-30T08:06:22;18.37;113.36
66102;HTU21D;52883;51.094;5.880;2023-04-30T08:08:48;18.78;111.88
66102;HTU21D;52883;51.094;5.880;2023-04-30T08:11:13;19.15;104.86
66102;HTU21D;52883;51.094;5.880;2023-04-30T08:13:41;19.40;98.16
66102;HTU21D;52883;51.094;5.880;2023-04-30T08:16:07;19.32;98.45
66102;HTU21D;52883;51.094;5.880;2023-04-30T08:18:33;19.37;113.90
66102;HTU21D;52883;51.094;5.880;2023-04-30T08:20:59;20.33;111.26
66102;HTU21D;52883;51.094;5.880;2023-04-30T08:23:26;21.59;97.17
66102;HTU21D;52883;51.094;5.880;2023-04-30T08:25:51;22.39;85.94
66102;HTU21D;52883;51.094;5.880;2023-04-30T08:28:17;22.85;78.22
66102;HTU21D;52883;51.094;5.880;2023-04-30T08:30:43;23.18;74.70
66102;HTU21D;52883;51.094;5.880;2023-04-30T08:33:09;23.37;75.14
66102;HTU21D;52883;51.094;5.880;2023-04-30T08:35:34;23.32;73.44
66102;HTU21D;52883;51.094;5.880;2023-04-30T08:38:00;23.43;74.18
66102;HTU21D;52883;51.094;5.880;2023-04-30T08:40:26;23.84;52.13
66102;HTU21D;52883;51.094;5.880;2023-04-30T08:43:08;24.25;66.55
66102;HTU21D;52883;51.094;5.880;2023-04-30T08:45:36;24.27;68.26
66102;HTU21D;52883;51.094;5.880;2023-04-30T08:48:03;24.28;68.86
66102;HTU21D;52883;51.094;5.880;2023-04-30T08:50:30;24.44;65.85
66102;HTU21D;52883;51.094;5.880;2023-04-30T08:53:00;24.62;64.02
66102;HTU21D;52883;51.094;5.880;2023-04-30T08:55:27;24.88;63.44
66102;HTU21D;52883;51.094;5.880;2023-04-30T08:57:52;24.90;42.80
66102;HTU21D;52883;51.094;5.880;2023-04-30T09:00:18;24.56;55.34
66102;HTU21D;52883;51.094;5.880;2023-04-30T09:02:46;24.69;55.63
66102;HTU21D;52883;51.094;5.880;2023-04-30T09:05:13;24.74;50.99
66102;HTU21D;52883;51.094;5.880;2023-04-30T09:07:41;24.48;55.90
66102;HTU21D;52883;51.094;5.880;2023-04-30T09:10:20;24.38;54.25
66102;HTU21D;52883;51.094;5.880;2023-04-30T09:13:06;24.12;50.85
66102;HTU21D;52883;51.094;5.880;2023-04-30T09:15:35;24.05;53.31
66102;HTU21D;52883;51.094;5.880;2023-04-30T09:20:36;23.75;54.03
66102;HTU21D;52883;51.094;5.880;2023-04-30T09:23:07;23.97;53.07
66102;HTU21D;52883;51.094;5.880;2023-04-30T09:25:42;23.94;37.17
66102;HTU21D;52883;51.094;5.880;2023-04-30T09:28:12;23.70;40.05
66102;HTU21D;52883;51.094;5.880;2023-04-30T09:30:39;23.74;55.13
66102;HTU21D;52883;51.094;5.880;2023-04-30T09:33:05;23.92;49.50
66102;HTU21D;52883;51.094;5.880;2023-04-30T09:35:36;23.89;47.27
66102;HTU21D;52883;51.094;5.880;2023-04-30T09:38:04;24.05;48.01
66102;HTU21D;52883;51.094;5.880;2023-04-30T09:40:38;24.34;49.45
66102;HTU21D;52883;51.094;5.880;2023-04-30T09:43:05;24.62;50.15
66102;HTU21D;52883;51.094;5.880;2023-04-30T09:45:41;24.70;32.86
66102;HTU21D;52883;51.094;5.880;2023-04-30T09:48:08;24.45;30.56
66102;HTU21D;52883;51.094;5.880;2023-04-30T09:50:38;24.51;39.31
66102;HTU21D;52883;51.094;5.880;2023-04-30T09:53:09;24.62;32.71
66102;HTU21D;52883;51.094;5.880;2023-04-30T09:55:36;24.53;39.94
66102;HTU21D;52883;51.094;5.880;2023-04-30T09:58:05;24.48;36.92
66102;HTU21D;52883;51.094;5.880;2023-04-30T10:00:33;24.38;38.49
66102;HTU21D;52883;51.094;5.880;2023-04-30T10:03:13;24.61;38.32
66102;HTU21D;52883;51.094;5.880;2023-04-30T10:05:44;24.91;40.31
66102;HTU21D;52883;51.094;5.880;2023-04-30T10:08:36;25.01;30.83
66102;HTU21D;52883;51.094;5.880;2023-04-30T10:11:05;24.86;37.10
66102;HTU21D;52883;51.094;5.880;2023-04-30T10:13:42;24.84;32.68
66102;HTU21D;52883;51.094;5.880;2023-04-30T10:18:58;25.00;31.73
66102;HTU21D;52883;51.094;5.880;2023-04-30T10:21:26;25.08;33.50
66102;HTU21D;52883;51.094;5.880;2023-04-30T10:23:53;25.33;35.37
66102;HTU21D;52883;51.094;5.880;2023-04-30T10:26:19;25.75;35.73
66102;HTU21D;52883;51.094;5.880;2023-04-30T10:28:47;26.11;35.21
66102;HTU21D;52883;51.094;5.880;2023-04-30T10:31:16;26.30;34.31
66102;HTU21D;52883;51.094;5.880;2023-04-30T10:33:52;26.40;32.02
66102;HTU21D;52883;51.094;5.880;2023-04-30T10:36:28;26.38;30.95
66102;HTU21D;52883;51.094;5.880;2023-04-30T10:38:59;26.15;34.24
66102;HTU21D;52883;51.094;5.880;2023-04-30T10:41:26;26.57;35.76
66102;HTU21D;52883;51.094;5.880;2023-04-30T10:43:57;27.41;34.15
66102;HTU21D;52883;51.094;5.880;2023-04-30T10:46:25;27.31;30.06
66102;HTU21D;52883;51.094;5.880;2023-04-30T10:48:56;26.97;29.47
66102;HTU21D;52883;51.094;5.880;2023-04-30T10:51:22;26.91;31.21
66102;HTU21D;52883;51.094;5.880;2023-04-30T10:53:51;27.05;27.32
66102;HTU21D;52883;51.094;5.880;2023-04-30T10:56:31;26.43;31.20
66102;HTU21D;52883;51.094;5.880;2023-04-30T10:58:59;26.56;31.54
66102;HTU21D;52883;51.094;5.880;2023-04-30T11:01:27;26.94;30.25
66102;HTU21D;52883;51.094;5.880;2023-04-30T11:04:05;27.05;29.86
66102;HTU21D;52883;51.094;5.880;2023-04-30T11:09:38;28.20;27.74
66102;HTU21D;52883;51.094;5.880;2023-04-30T11:12:10;28.21;27.86
66102;HTU21D;52883;51.094;5.880;2023-04-30T11:14:39;28.61;27.56
66102;HTU21D;52883;51.094;5.880;2023-04-30T11:17:06;28.57;27.02
66102;HTU21D;52883;51.094;5.880;2023-04-30T11:19:32;28.43;24.52
66102;HTU21D;52883;51.094;5.880;2023-04-30T11:27:22;26.32;30.18
66102;HTU21D;52883;51.094;5.880;2023-04-30T11:29:50;25.48;30.43
66102;HTU21D;52883;51.094;5.880;2023-04-30T11:32:20;24.71;31.88
66102;HTU21D;52883;51.094;5.880;2023-04-30T11:34:46;24.88;34.01
66102;HTU21D;52883;51.094;5.880;2023-04-30T11:37:17;25.23;33.20
66102;HTU21D;52883;51.094;5.880;2023-04-30T11:39:43;25.94;30.99
66102;HTU21D;52883;51.094;5.880;2023-04-30T11:42:09;26.34;33.31
66102;HTU21D;52883;51.094;5.880;2023-04-30T11:44:34;26.82;31.07
66102;HTU21D;52883;51.094;5.880;2023-04-30T11:47:00;27.37;30.23
66102;HTU21D;52883;51.094;5.880;2023-04-30T11:49:26;27.08;24.50
66102;HTU21D;52883;51.094;5.880;2023-04-30T11:51:52;26.62;28.46
66102;HTU21D;52883;51.094;5.880;2023-04-30T11:54:18;25.91;27.68
66102;HTU21D;52883;51.094;5.880;2023-04-30T11:56:47;25.87;30.71
66102;HTU21D;52883;51.094;5.880;2023-04-30T11:59:14;25.81;27.82
66102;HTU21D;52883;51.094;5.880;2023-04-30T12:01:41;26.02;31.77
66102;HTU21D;52883;51.094;5.880;2023-04-30T12:04:07;26.49;29.29
66102;HTU21D;52883;51.094;5.880;2023-04-30T12:06:35;26.79;29.87
66102;HTU21D;52883;51.094;5.880;2023-04-30T12:09:03;26.76;26.63
66102;HTU21D;52883;51.094;5.880;2023-04-30T12:11:33;26.66;29.03
66102;HTU21D;52883;51.094;5.880;2023-04-30T12:14:04;26.60;29.00
66102;HTU21D;52883;51.094;5.880;2023-04-30T12:16:47;26.43;29.32
66102;HTU21D;52883;51.094;5.880;2023-04-30T12:19:21;26.47;28.32
66102;HTU21D;52883;51.094;5.880;2023-04-30T12:21:49;26.42;27.46
66102;HTU21D;52883;51.094;5.880;2023-04-30T12:24:17;26.42;30.86
66102;HTU21D;52883;51.094;5.880;2023-04-30T12:26:43;27.08;30.80
66102;HTU21D;52883;51.094;5.880;2023-04-30T12:29:13;27.40;28.95
66102;HTU21D;52883;51.094;5.880;2023-04-30T12:31:39;27.24;27.39
66102;HTU21D;52883;51.094;5.880;2023-04-30T12:34:11;26.97;28.49
66102;HTU21D;52883;51.094;5.880;2023-04-30T12:36:39;27.07;25.61
66102;HTU21D;52883;51.094;5.880;2023-04-30T12:39:15;26.86;28.19
66102;HTU21D;52883;51.094;5.880;2023-04-30T12:41:45;26.41;27.68
66102;HTU21D;52883;51.094;5.880;2023-04-30T12:44:22;25.82;29.20
66102;HTU21D;52883;51.094;5.880;2023-04-30T12:46:50;25.61;30.65
66102;HTU21D;52883;51.094;5.880;2023-04-30T12:49:26;25.87;29.44
66102;HTU21D;52883;51.094;5.880;2023-04-30T12:52:03;26.20;29.64
66102;HTU21D;52883;51.094;5.880;2023-04-30T12:54:32;26.43;30.31
66102;HTU21D;52883;51.094;5.880;2023-04-30T12:57:07;26.68;29.94
66102;HTU21D;52883;51.094;5.880;2023-04-30T12:59:35;26.97;25.84
66102;HTU21D;52883;51.094;5.880;2023-04-30T13:02:08;27.32;30.34
66102;HTU21D;52883;51.094;5.880;2023-04-30T13:04:35;27.41;25.01
66102;HTU21D;52883;51.094;5.880;2023-04-30T13:07:02;27.07;28.72
66102;HTU21D;52883;51.094;5.880;2023-04-30T13:09:28;27.05;27.87
66102;HTU21D;52883;51.094;5.880;2023-04-30T13:11:53;26.71;29.48
66102;HTU21D;52883;51.094;5.880;2023-04-30T13:14:19;26.43;29.05
66102;HTU21D;52883;51.094;5.880;2023-04-30T13:16:45;26.21;28.43
66102;HTU21D;52883;51.094;5.880;2023-04-30T13:19:10;26.05;29.48
66102;HTU21D;52883;51.094;5.880;2023-04-30T13:21:37;25.99;29.66
66102;HTU21D;52883;51.094;5.880;2023-04-30T13:24:02;25.52;27.98
66102;HTU21D;52883;51.094;5.880;2023-04-30T13:26:28;25.20;29.90
66102;HTU21D;52883;51.094;5.880;2023-04-30T13:28:54;24.99;30.20
66102;HTU21D;52883;51.094;5.880;2023-04-30T13:31:20;24.97;30.87
66102;HTU21D;52883;51.094;5.880;2023-04-30T13:33:46;25.24;31.02
66102;HTU21D;52883;51.094;5.880;2023-04-30T13:36:12;25.82;29.47
66102;HTU21D;52883;51.094;5.880;2023-04-30T13:38:38;25.44;29.52
66102;HTU21D;52883;51.094;5.880;2023-04-30T13:41:04;24.85;30.49
66102;HTU21D;52883;51.094;5.880;2023-04-30T13:43:30;24.77;31.51
66102;HTU21D;52883;51.094;5.880;2023-04-30T13:45:56;24.95;32.38
66102;HTU21D;52883;51.094;5.880;2023-04-30T13:48:23;25.45;31.56
66102;HTU21D;52883;51.094;5.880;2023-04-30T13:50:50;25.75;30.69
66102;HTU21D;52883;51.094;5.880;2023-04-30T13:53:16;25.88;28.42
66102;HTU21D;52883;51.094;5.880;2023-04-30T13:55:42;25.74;28.42
66102;HTU21D;52883;51.094;5.880;2023-04-30T13:58:07;25.09;28.40
66102;HTU21D;52883;51.094;5.880;2023-04-30T14:00:33;24.64;33.21
66102;HTU21D;52883;51.094;5.880;2023-04-30T14:02:58;25.01;30.78
66102;HTU21D;52883;51.094;5.880;2023-04-30T14:05:24;25.44;31.70
66102;HTU21D;52883;51.094;5.880;2023-04-30T14:07:50;25.29;30.93
66102;HTU21D;52883;51.094;5.880;2023-04-30T14:10:15;25.56;33.66
66102;HTU21D;52883;51.094;5.880;2023-04-30T14:12:44;26.37;29.75
66102;HTU21D;52883;51.094;5.880;2023-04-30T14:15:10;26.35;26.99
66102;HTU21D;52883;51.094;5.880;2023-04-30T14:17:35;25.65;29.23
66102;HTU21D;52883;51.094;5.880;2023-04-30T14:20:01;25.32;30.59
66102;HTU21D;52883;51.094;5.880;2023-04-30T14:22:27;25.59;28.90
66102;HTU21D;52883;51.094;5.880;2023-04-30T14:24:52;25.52;28.67
66102;HTU21D;52883;51.094;5.880;2023-04-30T14:27:18;25.12;28.60
66102;HTU21D;52883;51.094;5.880;2023-04-30T14:29:44;24.70;31.12
66102;HTU21D;52883;51.094;5.880;2023-04-30T14:32:12;24.28;30.87
66102;HTU21D;52883;51.094;5.880;2023-04-30T14:34:38;23.62;32.24
66102;HTU21D;52883;51.094;5.880;2023-04-30T14:37:04;23.27;33.22
66102;HTU21D;52883;51.094;5.880;2023-04-30T14:39:30;23.38;33.99
66102;HTU21D;52883;51.094;5.880;2023-04-30T14:41:56;23.62;33.02
66102;HTU21D;52883;51.094;5.880;2023-04-30T14:44:22;23.85;32.02
66102;HTU21D;52883;51.094;5.880;2023-04-30T14:46:51;24.02;31.95
66102;HTU21D;52883;51.094;5.880;2023-04-30T14:49:17;24.03;32.04
66102;HTU21D;52883;51.094;5.880;2023-04-30T14:51:42;24.09;30.88
66102;HTU21D;52883;51.094;5.880;2023-04-30T14:54:08;23.45;31.48
66102;HTU21D;52883;51.094;5.880;2023-04-30T14:56:34;22.83;32.98
66102;HTU21D;52883;51.094;5.880;2023-04-30T14:59:00;22.46;33.33
66102;HTU21D;52883;51.094;5.880;2023-04-30T15:01:25;22.09;34.87
66102;HTU21D;52883;51.094;5.880;2023-04-30T15:03:51;21.87;35.36
66102;HTU21D;52883;51.094;5.880;2023-04-30T15:06:17;21.88;35.56
66102;HTU21D;52883;51.094;5.880;2023-04-30T15:08:43;22.02;36.29
66102;HTU21D;52883;51.094;5.880;2023-04-30T15:11:09;22.11;35.28
66102;HTU21D;52883;51.094;5.880;2023-04-30T15:13:37;22.17;35.90
66102;HTU21D;52883;51.094;5.880;2023-04-30T15:16:04;22.20;35.89
66102;HTU21D;52883;51.094;5.880;2023-04-30T15:18:30;22.06;35.25
66102;HTU21D;52883;51.094;5.880;2023-04-30T15:20:56;21.69;37.33
66102;HTU21D;52883;51.094;5.880;2023-04-30T15:23:22;21.39;38.23
66102;HTU21D;52883;51.094;5.880;2023-04-30T15:25:47;21.19;39.45
66102;HTU21D;52883;51.094;5.880;2023-04-30T15:28:13;21.10;39.69
66102;HTU21D;52883;51.094;5.880;2023-04-30T15:30:40;21.04;39.64
66102;HTU21D;52883;51.094;5.880;2023-04-30T15:33:05;20.91;40.59
66102;HTU21D;52883;51.094;5.880;2023-04-30T15:35:31;20.88;41.04
66102;HTU21D;52883;51.094;5.880;2023-04-30T15:37:56;20.96;41.36
66102;HTU21D;52883;51.094;5.880;2023-04-30T15:40:22;21.19;40.95
66102;HTU21D;52883;51.094;5.880;2023-04-30T15:42:47;21.37;40.72
66102;HTU21D;52883;51.094;5.880;2023-04-30T15:45:13;21.63;39.55